sensor_id;sensor_type;location;lat;lon;timestamp;temperature;humidity
2999;DHT22;1509;51.964;7.628;2022-11-15T00:01:56;9.50;99.90
2999;DHT22;1509;51.964;7.628;2022-11-15T00:04:22;9.50;99.90
2999;DHT22;1509;51.964;7.628;2022-11-15T00:06:48;9.50;99.90
2999;DHT22;1509;51.964;7.628;2022-11-15T00:09:13;9.40;99.90
2999;DHT22;1509;51.964;7.628;2022-11-15T00:11:39;9.40;99.90
2999;DHT22;1509;51.964;7.628;2022-11-15T00:14:04;9.30;99.90
2999;DHT22;1509;51.964;7.628;2022-11-15T00:16:30;9.30;99.90
2999;DHT22;1509;51.964;7.628;2022-11-15T00:18:55;9.30;99.90
2999;DHT22;1509;51.964;7.628;2022-11-15T00:21:22;9.40;99.90
2999;DHT22;1509;51.964;7.628;2022-11-15T00:23:48;9.40;99.90
2999;DHT22;1509;51.964;7.628;2022-11-15T00:26:16;9.40;99.90
2999;DHT22;1509;51.964;7.628;2022-11-15T00:28:42;9.50;99.90
2999;DHT22;1509;51.964;7.628;2022-11-15T00:31:11;9.50;99.90
2999;DHT22;1509;51.964;7.628;2022-11-15T00:33:37;9.50;99.90
2999;DHT22;1509;51.964;7.628;2022-11-15T00:36:08;9.50;99.90
2999;DHT22;1509;51.964;7.628;2022-11-15T00:38:39;9.50;99.90
2999;DHT22;1509;51.964;7.628;2022-11-15T00:41:05;9.50;99.90
2999;DHT22;1509;51.964;7.628;2022-11-15T00:43:32;9.60;99.90
2999;DHT22;1509;51.964;7.628;2022-11-15T00:45:57;9.60;99.90
2999;DHT22;1509;51.964;7.628;2022-11-15T00:48:23;9.60;99.90
2999;DHT22;1509;51.964;7.628;2022-11-15T00:50:49;9.60;99.90
2999;DHT22;1509;51.964;7.628;2022-11-15T00:53:15;9.70;99.90
2999;DHT22;1509;51.964;7.628;2022-11-15T00:55:41;9.70;99.90
2999;DHT22;1509;51.964;7.628;2022-11-15T00:58:09;9.80;99.90
2999;DHT22;1509;51.964;7.628;2022-11-15T01:00:35;9.90;99.90
2999;DHT22;1509;51.964;7.628;2022-11-15T01:03:01;9.80;99.90
2999;DHT22;1509;51.964;7.628;2022-11-15T01:05:27;9.80;99.90
2999;DHT22;1509;51.964;7.628;2022-11-15T01:07:57;9.90;99.90
2999;DHT22;1509;51.964;7.628;2022-11-15T01:10:26;9.90;99.90
2999;DHT22;1509;51.964;7.628;2022-11-15T01:12:51;9.70;99.90
2999;DHT22;1509;51.964;7.628;2022-11-15T01:15:19;9.80;99.90
2999;DHT22;1509;51.964;7.628;2022-11-15T01:17:45;9.80;99.90
2999;DHT22;1509;51.964;7.628;2022-11-15T01:20:11;9.80;99.90
2999;DHT22;1509;51.964;7.628;2022-11-15T01:22:37;9.70;99.90
2999;DHT22;1509;51.964;7.628;2022-11-15T01:25:02;9.80;99.90
2999;DHT22;1509;51.964;7.628;2022-11-15T01:27:28;9.80;99.90
2999;DHT22;1509;51.964;7.628;2022-11-15T01:29:54;9.80;99.90
2999;DHT22;1509;51.964;7.628;2022-11-15T01:32:19;9.80;99.90
2999;DHT22;1509;51.964;7.628;2022-11-15T01:34:45;9.90;99.90
2999;DHT22;1509;51.964;7.628;2022-11-15T01:37:11;9.90;99.90
2999;DHT22;1509;51.964;7.628;2022-11-15T01:39:36;10.00;99.90
2999;DHT22;1509;51.964;7.628;2022-11-15T01:42:02;10.00;99.90
2999;DHT22;1509;51.964;7.628;2022-11-15T01:44:36;10.10;99.90
2999;DHT22;1509;51.964;7.628;2022-11-15T01:47:09;10.00;99.90
2999;DHT22;1509;51.964;7.628;2022-11-15T01:49:40;10.10;99.90
2999;DHT22;1509;51.964;7.628;2022-11-15T01:52:13;10.20;99.90
2999;DHT22;1509;51.964;7.628;2022-11-15T01:54:40;10.20;99.90
2999;DHT22;1509;51.964;7.628;2022-11-15T01:57:09;10.10;99.90
2999;DHT22;1509;51.964;7.628;2022-11-15T01:59:37;10.20;99.90
2999;DHT22;1509;51.964;7.628;2022-11-15T02:02:06;10.20;99.90
2999;DHT22;1509;51.964;7.628;2022-11-15T02:04:35;10.20;99.90
2999;DHT22;1509;51.964;7.628;2022-11-15T02:07:04;10.30;99.90
2999;DHT22;1509;51.964;7.628;2022-11-15T02:09:30;10.30;99.90
2999;DHT22;1509;51.964;7.628;2022-11-15T02:11:59;10.30;99.90
2999;DHT22;1509;51.964;7.628;2022-11-15T02:14:27;10.30;99.90
2999;DHT22;1509;51.964;7.628;2022-11-15T02:16:58;10.30;99.90
2999;DHT22;1509;51.964;7.628;2022-11-15T02:30:55;10.40;99.90
2999;DHT22;1509;51.964;7.628;2022-11-15T02:33:35;10.40;99.90
2999;DHT22;1509;51.964;7.628;2022-11-15T02:36:06;10.50;99.90
2999;DHT22;1509;51.964;7.628;2022-11-15T02:41:31;10.50;99.90
2999;DHT22;1509;51.964;7.628;2022-11-15T02:46:40;10.50;99.90
2999;DHT22;1509;51.964;7.628;2022-11-15T02:49:29;10.60;99.90
2999;DHT22;1509;51.964;7.628;2022-11-15T02:51:56;10.60;99.90
2999;DHT22;1509;51.964;7.628;2022-11-15T02:54:24;10.70;99.90
2999;DHT22;1509;51.964;7.628;2022-11-15T02:56:53;10.70;99.90
2999;DHT22;1509;51.964;7.628;2022-11-15T02:59:23;10.70;99.90
2999;DHT22;1509;51.964;7.628;2022-11-15T03:02:18;10.80;99.90
2999;DHT22;1509;51.964;7.628;2022-11-15T03:04:57;10.70;99.90
2999;DHT22;1509;51.964;7.628;2022-11-15T03:16:34;10.90;99.90
2999;DHT22;1509;51.964;7.628;2022-11-15T03:21:52;10.90;99.90
2999;DHT22;1509;51.964;7.628;2022-11-15T03:24:20;11.00;99.90
2999;DHT22;1509;51.964;7.628;2022-11-15T03:26:48;10.90;99.90
2999;DHT22;1509;51.964;7.628;2022-11-15T03:29:22;10.90;99.90
2999;DHT22;1509;51.964;7.628;2022-11-15T03:31:53;11.00;99.90
2999;DHT22;1509;51.964;7.628;2022-11-15T03:34:26;11.00;99.90
2999;DHT22;1509;51.964;7.628;2022-11-15T03:36:53;11.00;99.90
2999;DHT22;1509;51.964;7.628;2022-11-15T03:39:20;11.10;99.90
2999;DHT22;1509;51.964;7.628;2022-11-15T03:42:04;11.10;99.90
2999;DHT22;1509;51.964;7.628;2022-11-15T03:47:32;11.20;99.90
2999;DHT22;1509;51.964;7.628;2022-11-15T03:50:04;11.20;99.90
2999;DHT22;1509;51.964;7.628;2022-11-15T03:52:33;11.20;99.90
2999;DHT22;1509;51.964;7.628;2022-11-15T03:55:01;11.30;99.90
2999;DHT22;1509;51.964;7.628;2022-11-15T03:57:28;11.30;99.90
2999;DHT22;1509;51.964;7.628;2022-11-15T03:59:53;11.30;99.90
2999;DHT22;1509;51.964;7.628;2022-11-15T04:02:19;11.30;99.90
2999;DHT22;1509;51.964;7.628;2022-11-15T04:04:45;11.40;99.90
2999;DHT22;1509;51.964;7.628;2022-11-15T04:07:10;11.40;99.90
2999;DHT22;1509;51.964;7.628;2022-11-15T04:09:36;11.40;99.90
2999;DHT22;1509;51.964;7.628;2022-11-15T04:12:22;11.40;99.90
2999;DHT22;1509;51.964;7.628;2022-11-15T04:15:15;11.40;99.90
2999;DHT22;1509;51.964;7.628;2022-11-15T04:17:52;11.40;99.90
2999;DHT22;1509;51.964;7.628;2022-11-15T04:20:20;11.40;99.90
2999;DHT22;1509;51.964;7.628;2022-11-15T04:23:09;11.40;99.90
2999;DHT22;1509;51.964;7.628;2022-11-15T04:25:54;11.40;99.90
2999;DHT22;1509;51.964;7.628;2022-11-15T04:28:21;11.40;99.90
2999;DHT22;1509;51.964;7.628;2022-11-15T04:30:46;11.40;99.90
2999;DHT22;1509;51.964;7.628;2022-11-15T04:33:12;11.50;99.90
2999;DHT22;1509;51.964;7.628;2022-11-15T04:35:38;11.50;99.90
2999;DHT22;1509;51.964;7.628;2022-11-15T04:38:05;11.60;99.90
2999;DHT22;1509;51.964;7.628;2022-11-15T04:40:31;11.60;99.90
2999;DHT22;1509;51.964;7.628;2022-11-15T04:42:57;11.60;99.90
2999;DHT22;1509;51.964;7.628;2022-11-15T04:45:23;11.60;99.90
2999;DHT22;1509;51.964;7.628;2022-11-15T04:47:48;11.70;99.90
2999;DHT22;1509;51.964;7.628;2022-11-15T04:50:15;11.70;99.90
2999;DHT22;1509;51.964;7.628;2022-11-15T04:52:41;11.70;99.90
2999;DHT22;1509;51.964;7.628;2022-11-15T04:55:11;11.80;99.90
2999;DHT22;1509;51.964;7.628;2022-11-15T04:57:37;11.80;99.90
2999;DHT22;1509;51.964;7.628;2022-11-15T05:00:09;11.80;99.90
2999;DHT22;1509;51.964;7.628;2022-11-15T05:02:35;11.80;99.90
2999;DHT22;1509;51.964;7.628;2022-11-15T05:05:19;11.90;99.90
2999;DHT22;1509;51.964;7.628;2022-11-15T05:07:45;11.90;99.90
2999;DHT22;1509;51.964;7.628;2022-11-15T05:10:11;11.90;99.90
2999;DHT22;1509;51.964;7.628;2022-11-15T05:12:37;11.90;99.90
2999;DHT22;1509;51.964;7.628;2022-11-15T05:15:03;12.00;99.90
2999;DHT22;1509;51.964;7.628;2022-11-15T05:17:28;12.00;99.90
2999;DHT22;1509;51.964;7.628;2022-11-15T05:19:54;12.10;99.90
2999;DHT22;1509;51.964;7.628;2022-11-15T05:22:20;12.10;99.90
2999;DHT22;1509;51.964;7.628;2022-11-15T05:24:46;12.20;99.90
2999;DHT22;1509;51.964;7.628;2022-11-15T05:27:11;12.30;99.90
2999;DHT22;1509;51.964;7.628;2022-11-15T05:29:37;12.20;99.90
2999;DHT22;1509;51.964;7.628;2022-11-15T05:32:05;12.20;99.90
2999;DHT22;1509;51.964;7.628;2022-11-15T05:34:31;12.20;99.90
2999;DHT22;1509;51.964;7.628;2022-11-15T05:36:57;12.30;99.90
2999;DHT22;1509;51.964;7.628;2022-11-15T05:39:23;12.30;99.90
2999;DHT22;1509;51.964;7.628;2022-11-15T05:41:54;12.30;99.90
2999;DHT22;1509;51.964;7.628;2022-11-15T05:44:22;12.30;99.90
2999;DHT22;1509;51.964;7.628;2022-11-15T05:46:50;12.30;99.90
2999;DHT22;1509;51.964;7.628;2022-11-15T05:49:20;12.30;99.90
2999;DHT22;1509;51.964;7.628;2022-11-15T05:51:47;12.40;99.90
2999;DHT22;1509;51.964;7.628;2022-11-15T05:54:14;12.30;99.90
2999;DHT22;1509;51.964;7.628;2022-11-15T05:56:41;12.30;99.90
2999;DHT22;1509;51.964;7.628;2022-11-15T05:59:08;12.30;99.90
2999;DHT22;1509;51.964;7.628;2022-11-15T06:01:34;12.40;99.90
2999;DHT22;1509;51.964;7.628;2022-11-15T06:03:59;12.30;99.90
2999;DHT22;1509;51.964;7.628;2022-11-15T06:06:27;12.30;99.90
2999;DHT22;1509;51.964;7.628;2022-11-15T06:08:53;12.30;99.90
2999;DHT22;1509;51.964;7.628;2022-11-15T06:11:18;12.30;99.90
2999;DHT22;1509;51.964;7.628;2022-11-15T06:13:44;12.30;99.90
2999;DHT22;1509;51.964;7.628;2022-11-15T06:16:09;12.30;99.90
2999;DHT22;1509;51.964;7.628;2022-11-15T06:18:36;12.30;99.90
2999;DHT22;1509;51.964;7.628;2022-11-15T06:21:01;12.20;99.90
2999;DHT22;1509;51.964;7.628;2022-11-15T06:23:28;12.20;99.90
2999;DHT22;1509;51.964;7.628;2022-11-15T06:25:58;12.20;99.90
2999;DHT22;1509;51.964;7.628;2022-11-15T06:28:24;12.10;99.90
2999;DHT22;1509;51.964;7.628;2022-11-15T06:30:50;12.10;99.90
2999;DHT22;1509;51.964;7.628;2022-11-15T06:33:15;12.00;99.90
2999;DHT22;1509;51.964;7.628;2022-11-15T06:35:41;12.00;99.90
2999;DHT22;1509;51.964;7.628;2022-11-15T06:38:10;12.00;99.90
2999;DHT22;1509;51.964;7.628;2022-11-15T06:40:37;12.00;99.90
2999;DHT22;1509;51.964;7.628;2022-11-15T06:43:05;12.00;99.90
2999;DHT22;1509;51.964;7.628;2022-11-15T06:45:31;12.10;99.90
2999;DHT22;1509;51.964;7.628;2022-11-15T06:47:57;12.10;99.90
2999;DHT22;1509;51.964;7.628;2022-11-15T06:50:23;12.10;99.90
2999;DHT22;1509;51.964;7.628;2022-11-15T06:52:49;12.10;99.90
2999;DHT22;1509;51.964;7.628;2022-11-15T06:55:15;12.10;99.90
2999;DHT22;1509;51.964;7.628;2022-11-15T06:57:48;12.10;99.90
2999;DHT22;1509;51.964;7.628;2022-11-15T07:00:15;12.10;99.90
2999;DHT22;1509;51.964;7.628;2022-11-15T07:02:41;12.20;99.90
2999;DHT22;1509;51.964;7.628;2022-11-15T07:05:06;12.30;99.90
2999;DHT22;1509;51.964;7.628;2022-11-15T07:07:32;12.30;99.90
2999;DHT22;1509;51.964;7.628;2022-11-15T07:09:58;12.20;99.90
2999;DHT22;1509;51.964;7.628;2022-11-15T07:12:23;12.40;99.90
2999;DHT22;1509;51.964;7.628;2022-11-15T07:14:49;12.40;99.90
2999;DHT22;1509;51.964;7.628;2022-11-15T07:17:14;12.40;99.90
2999;DHT22;1509;51.964;7.628;2022-11-15T07:19:40;12.40;99.90
2999;DHT22;1509;51.964;7.628;2022-11-15T07:22:06;12.40;99.90
2999;DHT22;1509;51.964;7.628;2022-11-15T07:24:31;12.40;99.90
2999;DHT22;1509;51.964;7.628;2022-11-15T07:26:57;12.30;99.90
2999;DHT22;1509;51.964;7.628;2022-11-15T07:29:22;12.50;99.90
2999;DHT22;1509;51.964;7.628;2022-11-15T07:31:49;12.50;99.90
2999;DHT22;1509;51.964;7.628;2022-11-15T07:34:15;12.50;99.90
2999;DHT22;1509;51.964;7.628;2022-11-15T07:36:41;12.70;99.90
2999;DHT22;1509;51.964;7.628;2022-11-15T07:39:07;12.60;99.90
2999;DHT22;1509;51.964;7.628;2022-11-15T07:41:32;12.60;99.90
2999;DHT22;1509;51.964;7.628;2022-11-15T07:43:58;12.50;99.90
2999;DHT22;1509;51.964;7.628;2022-11-15T07:46:24;12.50;99.90
2999;DHT22;1509;51.964;7.628;2022-11-15T07:48:49;12.50;99.90
2999;DHT22;1509;51.964;7.628;2022-11-15T07:51:16;12.50;99.90
2999;DHT22;1509;51.964;7.628;2022-11-15T07:53:42;12.60;99.90
2999;DHT22;1509;51.964;7.628;2022-11-15T07:56:09;12.40;99.90
2999;DHT22;1509;51.964;7.628;2022-11-15T07:58:34;12.40;99.90
2999;DHT22;1509;51.964;7.628;2022-11-15T08:01:07;12.40;99.90
2999;DHT22;1509;51.964;7.628;2022-11-15T08:03:33;12.50;99.90
2999;DHT22;1509;51.964;7.628;2022-11-15T08:05:59;12.40;99.90
2999;DHT22;1509;51.964;7.628;2022-11-15T08:08:24;12.40;99.90
2999;DHT22;1509;51.964;7.628;2022-11-15T08:10:50;12.50;99.90
2999;DHT22;1509;51.964;7.628;2022-11-15T08:13:19;12.60;99.90
2999;DHT22;1509;51.964;7.628;2022-11-15T08:15:45;12.60;99.90
2999;DHT22;1509;51.964;7.628;2022-11-15T08:18:12;12.70;99.90
2999;DHT22;1509;51.964;7.628;2022-11-15T08:20:38;12.60;99.90
2999;DHT22;1509;51.964;7.628;2022-11-15T08:23:05;12.70;99.90
2999;DHT22;1509;51.964;7.628;2022-11-15T08:25:32;12.80;99.90
2999;DHT22;1509;51.964;7.628;2022-11-15T08:28:01;12.80;99.90
2999;DHT22;1509;51.964;7.628;2022-11-15T08:30:27;12.80;99.90
2999;DHT22;1509;51.964;7.628;2022-11-15T08:32:53;13.10;99.90
2999;DHT22;1509;51.964;7.628;2022-11-15T08:35:20;13.10;99.90
2999;DHT22;1509;51.964;7.628;2022-11-15T08:37:46;13.20;99.90
2999;DHT22;1509;51.964;7.628;2022-11-15T08:40:12;13.20;99.90
2999;DHT22;1509;51.964;7.628;2022-11-15T08:42:39;13.50;99.90
2999;DHT22;1509;51.964;7.628;2022-11-15T08:45:05;13.60;99.90
2999;DHT22;1509;51.964;7.628;2022-11-15T08:47:31;13.70;99.90
2999;DHT22;1509;51.964;7.628;2022-11-15T08:49:57;13.80;99.90
2999;DHT22;1509;51.964;7.628;2022-11-15T08:52:23;14.00;99.90
2999;DHT22;1509;51.964;7.628;2022-11-15T08:54:48;14.30;99.90
2999;DHT22;1509;51.964;7.628;2022-11-15T08:57:14;14.60;99.90
2999;DHT22;1509;51.964;7.628;2022-11-15T08:59:40;14.60;99.90
2999;DHT22;1509;51.964;7.628;2022-11-15T09:02:05;14.60;99.90
2999;DHT22;1509;51.964;7.628;2022-11-15T09:04:31;14.90;99.90
2999;DHT22;1509;51.964;7.628;2022-11-15T09:06:57;15.10;99.90
2999;DHT22;1509;51.964;7.628;2022-11-15T09:09:23;15.60;99.90
2999;DHT22;1509;51.964;7.628;2022-11-15T09:11:48;16.00;99.90
2999;DHT22;1509;51.964;7.628;2022-11-15T09:14:16;16.00;99.90
2999;DHT22;1509;51.964;7.628;2022-11-15T09:16:41;15.80;99.90
2999;DHT22;1509;51.964;7.628;2022-11-15T09:19:07;15.50;99.90
2999;DHT22;1509;51.964;7.628;2022-11-15T09:21:32;15.70;99.90
2999;DHT22;1509;51.964;7.628;2022-11-15T09:23:58;15.90;99.90
2999;DHT22;1509;51.964;7.628;2022-11-15T09:26:24;15.60;99.90
2999;DHT22;1509;51.964;7.628;2022-11-15T09:28:49;15.10;99.90
2999;DHT22;1509;51.964;7.628;2022-11-15T09:31:15;15.00;99.90
2999;DHT22;1509;51.964;7.628;2022-11-15T09:33:43;14.80;99.90
2999;DHT22;1509;51.964;7.628;2022-11-15T09:36:09;14.70;99.90
2999;DHT22;1509;51.964;7.628;2022-11-15T09:38:35;14.80;99.90
2999;DHT22;1509;51.964;7.628;2022-11-15T09:41:25;14.90;99.90
2999;DHT22;1509;51.964;7.628;2022-11-15T09:47:10;15.10;99.90
2999;DHT22;1509;51.964;7.628;2022-11-15T09:49:41;15.00;99.90
2999;DHT22;1509;51.964;7.628;2022-11-15T09:52:07;15.10;99.90
2999;DHT22;1509;51.964;7.628;2022-11-15T09:54:40;15.10;99.90
2999;DHT22;1509;51.964;7.628;2022-11-15T09:57:15;15.10;99.90
2999;DHT22;1509;51.964;7.628;2022-11-15T10:05:21;15.00;99.90
2999;DHT22;1509;51.964;7.628;2022-11-15T10:08:35;15.00;99.90
2999;DHT22;1509;51.964;7.628;2022-11-15T10:11:26;15.20;99.90
2999;DHT22;1509;51.964;7.628;2022-11-15T10:13:56;15.50;99.90
2999;DHT22;1509;51.964;7.628;2022-11-15T10:22:37;16.80;99.90
2999;DHT22;1509;51.964;7.628;2022-11-15T10:25:19;17.20;99.90
2999;DHT22;1509;51.964;7.628;2022-11-15T10:27:54;17.10;99.90
2999;DHT22;1509;51.964;7.628;2022-11-15T10:30:21;17.10;99.90
2999;DHT22;1509;51.964;7.628;2022-11-15T10:32:47;17.10;99.90
2999;DHT22;1509;51.964;7.628;2022-11-15T10:37:46;17.30;99.90
2999;DHT22;1509;51.964;7.628;2022-11-15T10:40:22;17.10;99.90
2999;DHT22;1509;51.964;7.628;2022-11-15T10:42:49;16.80;99.90
2999;DHT22;1509;51.964;7.628;2022-11-15T10:45:31;16.50;99.90
2999;DHT22;1509;51.964;7.628;2022-11-15T10:50:42;16.90;99.90
2999;DHT22;1509;51.964;7.628;2022-11-15T10:55:42;17.50;99.90
2999;DHT22;1509;51.964;7.628;2022-11-15T10:58:36;18.30;99.90
2999;DHT22;1509;51.964;7.628;2022-11-15T11:01:28;18.90;99.90
2999;DHT22;1509;51.964;7.628;2022-11-15T11:04:05;18.30;99.90
2999;DHT22;1509;51.964;7.628;2022-11-15T11:06:58;18.10;99.90
2999;DHT22;1509;51.964;7.628;2022-11-15T11:12:00;17.20;99.90
2999;DHT22;1509;51.964;7.628;2022-11-15T11:14:30;17.90;99.90
2999;DHT22;1509;51.964;7.628;2022-11-15T11:17:09;18.70;99.90
2999;DHT22;1509;51.964;7.628;2022-11-15T11:19:56;19.20;99.90
2999;DHT22;1509;51.964;7.628;2022-11-15T11:27:59;20.60;99.90
2999;DHT22;1509;51.964;7.628;2022-11-15T11:33:27;21.30;99.90
2999;DHT22;1509;51.964;7.628;2022-11-15T11:35:59;20.30;99.90
2999;DHT22;1509;51.964;7.628;2022-11-15T11:38:44;19.90;99.90
2999;DHT22;1509;51.964;7.628;2022-11-15T11:41:43;20.00;99.90
2999;DHT22;1509;51.964;7.628;2022-11-15T11:44:28;20.30;99.90
2999;DHT22;1509;51.964;7.628;2022-11-15T11:47:11;19.90;99.90
2999;DHT22;1509;51.964;7.628;2022-11-15T11:52:52;19.40;99.90
2999;DHT22;1509;51.964;7.628;2022-11-15T11:55:23;19.70;99.90
2999;DHT22;1509;51.964;7.628;2022-11-15T11:58:16;19.80;99.90
2999;DHT22;1509;51.964;7.628;2022-11-15T12:00:51;19.90;99.90
2999;DHT22;1509;51.964;7.628;2022-11-15T12:06:32;20.20;99.90
2999;DHT22;1509;51.964;7.628;2022-11-15T12:09:12;20.10;99.90
2999;DHT22;1509;51.964;7.628;2022-11-15T12:11:52;19.80;99.90
2999;DHT22;1509;51.964;7.628;2022-11-15T12:14:32;19.90;99.90
2999;DHT22;1509;51.964;7.628;2022-11-15T12:16:58;20.50;99.90
2999;DHT22;1509;51.964;7.628;2022-11-15T12:19:25;20.80;99.90
2999;DHT22;1509;51.964;7.628;2022-11-15T12:27:42;19.90;99.90
2999;DHT22;1509;51.964;7.628;2022-11-15T12:30:18;19.90;99.90
2999;DHT22;1509;51.964;7.628;2022-11-15T12:32:54;20.10;99.90
2999;DHT22;1509;51.964;7.628;2022-11-15T12:35:39;20.20;99.90
2999;DHT22;1509;51.964;7.628;2022-11-15T12:38:10;20.00;99.90
2999;DHT22;1509;51.964;7.628;2022-11-15T12:40:38;19.40;99.90
2999;DHT22;1509;51.964;7.628;2022-11-15T12:43:34;19.70;99.90
2999;DHT22;1509;51.964;7.628;2022-11-15T12:46:02;19.40;99.90
2999;DHT22;1509;51.964;7.628;2022-11-15T12:51:03;18.60;99.90
2999;DHT22;1509;51.964;7.628;2022-11-15T12:53:31;18.50;99.90
2999;DHT22;1509;51.964;7.628;2022-11-15T13:04:28;18.10;99.90
2999;DHT22;1509;51.964;7.628;2022-11-15T13:07:05;18.40;99.90
2999;DHT22;1509;51.964;7.628;2022-11-15T13:12:06;18.30;99.90
2999;DHT22;1509;51.964;7.628;2022-11-15T13:14:49;18.50;99.90
2999;DHT22;1509;51.964;7.628;2022-11-15T13:17:39;18.50;99.90
2999;DHT22;1509;51.964;7.628;2022-11-15T13:22:43;18.80;99.90
2999;DHT22;1509;51.964;7.628;2022-11-15T13:26:06;18.90;99.90
2999;DHT22;1509;51.964;7.628;2022-11-15T13:28:39;18.80;99.90
2999;DHT22;1509;51.964;7.628;2022-11-15T13:31:40;18.70;99.90
2999;DHT22;1509;51.964;7.628;2022-11-15T13:36:41;18.30;99.90
2999;DHT22;1509;51.964;7.628;2022-11-15T13:39:29;18.40;99.90
2999;DHT22;1509;51.964;7.628;2022-11-15T13:41:55;18.60;99.90
2999;DHT22;1509;51.964;7.628;2022-11-15T13:44:29;18.40;99.90
2999;DHT22;1509;51.964;7.628;2022-11-15T13:47:04;18.20;99.90
2999;DHT22;1509;51.964;7.628;2022-11-15T13:49:31;17.90;99.90
2999;DHT22;1509;51.964;7.628;2022-11-15T13:51:58;17.80;99.90
2999;DHT22;1509;51.964;7.628;2022-11-15T13:57:15;17.40;99.90
2999;DHT22;1509;51.964;7.628;2022-11-15T13:59:51;17.30;99.90
2999;DHT22;1509;51.964;7.628;2022-11-15T14:02:19;17.10;99.90
2999;DHT22;1509;51.964;7.628;2022-11-15T14:04:56;16.80;99.90
2999;DHT22;1509;51.964;7.628;2022-11-15T14:07:25;16.70;99.90
2999;DHT22;1509;51.964;7.628;2022-11-15T14:09:51;16.50;99.90
2999;DHT22;1509;51.964;7.628;2022-11-15T14:14:54;16.10;99.90
2999;DHT22;1509;51.964;7.628;2022-11-15T14:17:33;15.90;99.90
2999;DHT22;1509;51.964;7.628;2022-11-15T14:19:59;16.00;99.90
2999;DHT22;1509;51.964;7.628;2022-11-15T14:22:29;15.90;99.90
2999;DHT22;1509;51.964;7.628;2022-11-15T14:25:23;15.90;99.90
2999;DHT22;1509;51.964;7.628;2022-11-15T14:28:12;15.80;99.90
2999;DHT22;1509;51.964;7.628;2022-11-15T14:30:39;15.80;99.90
2999;DHT22;1509;51.964;7.628;2022-11-15T14:35:44;15.60;99.90
2999;DHT22;1509;51.964;7.628;2022-11-15T14:38:10;15.60;99.90
2999;DHT22;1509;51.964;7.628;2022-11-15T14:40:35;15.60;99.90
2999;DHT22;1509;51.964;7.628;2022-11-15T14:43:01;15.60;99.90
2999;DHT22;1509;51.964;7.628;2022-11-15T14:45:27;15.50;99.90
2999;DHT22;1509;51.964;7.628;2022-11-15T14:47:52;15.40;99.90
2999;DHT22;1509;51.964;7.628;2022-11-15T14:50:20;15.40;99.90
2999;DHT22;1509;51.964;7.628;2022-11-15T14:52:46;15.40;99.90
2999;DHT22;1509;51.964;7.628;2022-11-15T14:55:25;15.30;99.90
2999;DHT22;1509;51.964;7.628;2022-11-15T14:57:51;15.30;99.90
2999;DHT22;1509;51.964;7.628;2022-11-15T15:00:19;15.20;99.90
2999;DHT22;1509;51.964;7.628;2022-11-15T15:02:46;15.20;99.90
2999;DHT22;1509;51.964;7.628;2022-11-15T15:05:25;15.30;99.90
2999;DHT22;1509;51.964;7.628;2022-11-15T15:07:51;15.10;99.90
2999;DHT22;1509;51.964;7.628;2022-11-15T15:10:18;15.10;99.90
2999;DHT22;1509;51.964;7.628;2022-11-15T15:12:44;15.00;99.90
2999;DHT22;1509;51.964;7.628;2022-11-15T15:15:17;14.90;99.90
2999;DHT22;1509;51.964;7.628;2022-11-15T15:17:43;14.90;99.90
2999;DHT22;1509;51.964;7.628;2022-11-15T15:20:10;15.00;99.90
2999;DHT22;1509;51.964;7.628;2022-11-15T15:22:37;15.00;99.90
2999;DHT22;1509;51.964;7.628;2022-11-15T15:25:07;14.90;99.90
2999;DHT22;1509;51.964;7.628;2022-11-15T15:27:34;14.90;99.90
2999;DHT22;1509;51.964;7.628;2022-11-15T15:29:59;15.00;99.90
2999;DHT22;1509;51.964;7.628;2022-11-15T15:32:25;14.90;99.90
2999;DHT22;1509;51.964;7.628;2022-11-15T15:34:51;14.90;99.90
2999;DHT22;1509;51.964;7.628;2022-11-15T15:37:25;14.90;99.90
2999;DHT22;1509;51.964;7.628;2022-11-15T15:39:53;14.80;99.90
2999;DHT22;1509;51.964;7.628;2022-11-15T15:42:20;14.70;99.90
2999;DHT22;1509;51.964;7.628;2022-11-15T15:44:47;14.60;99.90
2999;DHT22;1509;51.964;7.628;2022-11-15T15:47:18;14.60;99.90
2999;DHT22;1509;51.964;7.628;2022-11-15T15:49:45;14.50;99.90
2999;DHT22;1509;51.964;7.628;2022-11-15T15:52:10;14.40;99.90
2999;DHT22;1509;51.964;7.628;2022-11-15T15:54:37;14.40;99.90
2999;DHT22;1509;51.964;7.628;2022-11-15T15:57:03;14.40;99.90
2999;DHT22;1509;51.964;7.628;2022-11-15T15:59:29;14.40;99.90
2999;DHT22;1509;51.964;7.628;2022-11-15T16:01:54;14.40;99.90
2999;DHT22;1509;51.964;7.628;2022-11-15T16:04:20;14.20;99.90
2999;DHT22;1509;51.964;7.628;2022-11-15T16:06:46;14.20;99.90
2999;DHT22;1509;51.964;7.628;2022-11-15T16:09:15;14.10;99.90
2999;DHT22;1509;51.964;7.628;2022-11-15T16:11:43;14.00;99.90
2999;DHT22;1509;51.964;7.628;2022-11-15T16:14:09;14.00;99.90
2999;DHT22;1509;51.964;7.628;2022-11-15T16:16:36;13.90;99.90
2999;DHT22;1509;51.964;7.628;2022-11-15T16:19:02;13.90;99.90
2999;DHT22;1509;51.964;7.628;2022-11-15T16:21:28;13.80;99.90
2999;DHT22;1509;51.964;7.628;2022-11-15T16:23:53;13.80;99.90
2999;DHT22;1509;51.964;7.628;2022-11-15T16:26:25;13.70;99.90
2999;DHT22;1509;51.964;7.628;2022-11-15T16:28:51;13.70;99.90
2999;DHT22;1509;51.964;7.628;2022-11-15T16:31:17;13.60;99.90
2999;DHT22;1509;51.964;7.628;2022-11-15T16:33:45;13.50;99.90
2999;DHT22;1509;51.964;7.628;2022-11-15T16:36:22;13.60;99.90
2999;DHT22;1509;51.964;7.628;2022-11-15T16:38:48;13.50;99.90
2999;DHT22;1509;51.964;7.628;2022-11-15T16:41:15;13.40;99.90
2999;DHT22;1509;51.964;7.628;2022-11-15T16:43:46;13.40;99.90
2999;DHT22;1509;51.964;7.628;2022-11-15T16:46:30;13.40;99.90
2999;DHT22;1509;51.964;7.628;2022-11-15T16:48:55;13.40;99.90
2999;DHT22;1509;51.964;7.628;2022-11-15T16:51:22;13.30;99.90
2999;DHT22;1509;51.964;7.628;2022-11-15T16:53:48;13.30;99.90
2999;DHT22;1509;51.964;7.628;2022-11-15T16:56:28;13.40;99.90
2999;DHT22;1509;51.964;7.628;2022-11-15T16:58:55;13.30;99.90
2999;DHT22;1509;51.964;7.628;2022-11-15T17:03:51;13.30;99.90
2999;DHT22;1509;51.964;7.628;2022-11-15T17:06:17;13.30;99.90
2999;DHT22;1509;51.964;7.628;2022-11-15T17:08:43;13.20;99.90
2999;DHT22;1509;51.964;7.628;2022-11-15T17:11:13;13.20;99.90
2999;DHT22;1509;51.964;7.628;2022-11-15T17:13:39;13.20;99.90
2999;DHT22;1509;51.964;7.628;2022-11-15T17:16:07;13.30;99.90
2999;DHT22;1509;51.964;7.628;2022-11-15T17:18:33;13.20;99.90
2999;DHT22;1509;51.964;7.628;2022-11-15T17:21:20;13.10;99.90
2999;DHT22;1509;51.964;7.628;2022-11-15T17:23:46;13.30;99.90
2999;DHT22;1509;51.964;7.628;2022-11-15T17:26:14;13.20;99.90
2999;DHT22;1509;51.964;7.628;2022-11-15T17:28:40;13.20;99.90
2999;DHT22;1509;51.964;7.628;2022-11-15T17:31:08;13.20;99.90
2999;DHT22;1509;51.964;7.628;2022-11-15T17:33:34;13.30;99.90
2999;DHT22;1509;51.964;7.628;2022-11-15T17:36:02;13.20;99.90
2999;DHT22;1509;51.964;7.628;2022-11-15T17:38:29;13.10;99.90
2999;DHT22;1509;51.964;7.628;2022-11-15T17:41:12;13.20;99.90
2999;DHT22;1509;51.964;7.628;2022-11-15T17:43:38;13.10;99.90
2999;DHT22;1509;51.964;7.628;2022-11-15T17:46:07;13.10;99.90
2999;DHT22;1509;51.964;7.628;2022-11-15T17:48:34;13.10;99.90
2999;DHT22;1509;51.964;7.628;2022-11-15T17:51:02;13.00;99.90
2999;DHT22;1509;51.964;7.628;2022-11-15T17:53:36;13.00;99.90
2999;DHT22;1509;51.964;7.628;2022-11-15T17:58:29;13.00;99.90
2999;DHT22;1509;51.964;7.628;2022-11-15T18:01:04;13.00;99.90
2999;DHT22;1509;51.964;7.628;2022-11-15T18:03:35;13.00;99.90
2999;DHT22;1509;51.964;7.628;2022-11-15T18:06:03;13.00;99.90
2999;DHT22;1509;51.964;7.628;2022-11-15T18:08:29;13.10;99.90